sensor_id;sensor_type;location;lat;lon;timestamp;temperature;humidity
40374;DHT22;26079;45.958;12.492;2022-11-23T00:01:56;8.40;99.90
40374;DHT22;26079;45.958;12.492;2022-11-23T00:04:22;8.40;99.90
40374;DHT22;26079;45.958;12.492;2022-11-23T00:06:49;8.40;99.90
40374;DHT22;26079;45.958;12.492;2022-11-23T00:09:14;8.40;99.90
40374;DHT22;26079;45.958;12.492;2022-11-23T00:11:40;8.40;99.90
40374;DHT22;26079;45.958;12.492;2022-11-23T00:14:06;8.40;99.90
40374;DHT22;26079;45.958;12.492;2022-11-23T00:16:31;8.40;99.90
40374;DHT22;26079;45.958;12.492;2022-11-23T00:18:58;8.50;99.90
40374;DHT22;26079;45.958;12.492;2022-11-23T00:21:26;8.40;99.90
40374;DHT22;26079;45.958;12.492;2022-11-23T00:23:52;8.40;99.90
40374;DHT22;26079;45.958;12.492;2022-11-23T00:26:18;8.40;99.90
40374;DHT22;26079;45.958;12.492;2022-11-23T00:28:44;8.40;99.90
40374;DHT22;26079;45.958;12.492;2022-11-23T00:31:12;8.40;99.90
40374;DHT22;26079;45.958;12.492;2022-11-23T00:33:39;8.40;99.90
40374;DHT22;26079;45.958;12.492;2022-11-23T00:36:10;8.40;99.90
40374;DHT22;26079;45.958;12.492;2022-11-23T00:38:36;8.50;99.90
40374;DHT22;26079;45.958;12.492;2022-11-23T00:41:04;8.50;99.90
40374;DHT22;26079;45.958;12.492;2022-11-23T00:43:30;8.50;99.90
40374;DHT22;26079;45.958;12.492;2022-11-23T00:46:14;8.60;99.90
40374;DHT22;26079;45.958;12.492;2022-11-23T00:48:44;8.60;99.90
40374;DHT22;26079;45.958;12.492;2022-11-23T00:51:12;8.60;99.90
40374;DHT22;26079;45.958;12.492;2022-11-23T00:53:38;8.70;99.90
40374;DHT22;26079;45.958;12.492;2022-11-23T00:56:04;8.70;99.90
40374;DHT22;26079;45.958;12.492;2022-11-23T00:58:30;8.80;99.90
40374;DHT22;26079;45.958;12.492;2022-11-23T01:01:06;8.80;99.60
40374;DHT22;26079;45.958;12.492;2022-11-23T01:03:32;8.80;98.40
40374;DHT22;26079;45.958;12.492;2022-11-23T01:06:16;8.90;97.20
40374;DHT22;26079;45.958;12.492;2022-11-23T01:08:47;8.90;96.80
40374;DHT22;26079;45.958;12.492;2022-11-23T01:11:12;8.90;97.10
40374;DHT22;26079;45.958;12.492;2022-11-23T01:13:40;8.90;96.40
40374;DHT22;26079;45.958;12.492;2022-11-23T01:16:14;8.90;96.90
40374;DHT22;26079;45.958;12.492;2022-11-23T01:18:40;8.80;98.10
40374;DHT22;26079;45.958;12.492;2022-11-23T01:21:06;8.80;98.90
40374;DHT22;26079;45.958;12.492;2022-11-23T01:23:32;8.80;99.80
40374;DHT22;26079;45.958;12.492;2022-11-23T01:26:07;8.80;99.90
40374;DHT22;26079;45.958;12.492;2022-11-23T01:28:33;8.70;99.90
40374;DHT22;26079;45.958;12.492;2022-11-23T01:31:11;8.70;99.20
40374;DHT22;26079;45.958;12.492;2022-11-23T01:33:37;8.60;99.80
40374;DHT22;26079;45.958;12.492;2022-11-23T01:38:35;8.60;99.90
40374;DHT22;26079;45.958;12.492;2022-11-23T01:41:00;8.60;99.90
40374;DHT22;26079;45.958;12.492;2022-11-23T01:43:28;8.60;99.90
40374;DHT22;26079;45.958;12.492;2022-11-23T01:45:59;8.60;99.90
40374;DHT22;26079;45.958;12.492;2022-11-23T01:50:58;8.50;99.90
40374;DHT22;26079;45.958;12.492;2022-11-23T01:53:27;8.50;99.90
40374;DHT22;26079;45.958;12.492;2022-11-23T01:55:54;8.50;99.90
40374;DHT22;26079;45.958;12.492;2022-11-23T01:58:22;8.50;99.50
40374;DHT22;26079;45.958;12.492;2022-11-23T02:00:49;8.60;97.50
40374;DHT22;26079;45.958;12.492;2022-11-23T02:03:16;8.70;98.40
40374;DHT22;26079;45.958;12.492;2022-11-23T02:05:50;8.70;99.20
40374;DHT22;26079;45.958;12.492;2022-11-23T02:08:19;8.70;99.90
40374;DHT22;26079;45.958;12.492;2022-11-23T02:10:45;8.60;99.90
40374;DHT22;26079;45.958;12.492;2022-11-23T02:13:12;8.60;99.90
40374;DHT22;26079;45.958;12.492;2022-11-23T02:15:39;8.60;99.90
40374;DHT22;26079;45.958;12.492;2022-11-23T02:18:22;8.50;99.90
40374;DHT22;26079;45.958;12.492;2022-11-23T02:20:48;8.50;99.90
40374;DHT22;26079;45.958;12.492;2022-11-23T02:23:27;8.40;99.90
40374;DHT22;26079;45.958;12.492;2022-11-23T02:26:25;8.40;99.90
40374;DHT22;26079;45.958;12.492;2022-11-23T02:28:53;8.40;99.90
40374;DHT22;26079;45.958;12.492;2022-11-23T02:31:22;8.30;99.90
40374;DHT22;26079;45.958;12.492;2022-11-23T02:33:48;8.30;99.90
40374;DHT22;26079;45.958;12.492;2022-11-23T02:41:41;8.20;99.90
40374;DHT22;26079;45.958;12.492;2022-11-23T02:47:06;8.60;97.30
40374;DHT22;26079;45.958;12.492;2022-11-23T02:49:33;8.60;97.40
40374;DHT22;26079;45.958;12.492;2022-11-23T02:51:58;8.60;98.00
40374;DHT22;26079;45.958;12.492;2022-11-23T02:54:24;8.50;98.60
40374;DHT22;26079;45.958;12.492;2022-11-23T02:56:50;8.40;98.90
40374;DHT22;26079;45.958;12.492;2022-11-23T02:59:15;8.40;98.40
40374;DHT22;26079;45.958;12.492;2022-11-23T03:01:41;8.30;97.80
40374;DHT22;26079;45.958;12.492;2022-11-23T03:04:07;8.40;97.80
40374;DHT22;26079;45.958;12.492;2022-11-23T03:06:34;8.30;98.50
40374;DHT22;26079;45.958;12.492;2022-11-23T03:08:59;8.30;98.40
40374;DHT22;26079;45.958;12.492;2022-11-23T03:11:25;8.30;99.10
40374;DHT22;26079;45.958;12.492;2022-11-23T03:13:50;8.20;98.70
40374;DHT22;26079;45.958;12.492;2022-11-23T03:16:16;8.20;99.00
40374;DHT22;26079;45.958;12.492;2022-11-23T03:18:42;8.10;99.70
40374;DHT22;26079;45.958;12.492;2022-11-23T03:21:08;8.10;99.90
40374;DHT22;26079;45.958;12.492;2022-11-23T03:23:34;8.00;99.90
40374;DHT22;26079;45.958;12.492;2022-11-23T03:26:00;7.90;99.90
40374;DHT22;26079;45.958;12.492;2022-11-23T03:28:26;7.90;99.90
40374;DHT22;26079;45.958;12.492;2022-11-23T03:30:52;7.80;99.90
40374;DHT22;26079;45.958;12.492;2022-11-23T03:33:18;7.80;99.90
40374;DHT22;26079;45.958;12.492;2022-11-23T03:35:44;7.80;99.50
40374;DHT22;26079;45.958;12.492;2022-11-23T03:38:10;7.70;99.50
40374;DHT22;26079;45.958;12.492;2022-11-23T03:40:36;7.70;99.90
40374;DHT22;26079;45.958;12.492;2022-11-23T03:43:02;7.70;99.90
40374;DHT22;26079;45.958;12.492;2022-11-23T03:45:27;7.70;99.90
40374;DHT22;26079;45.958;12.492;2022-11-23T03:47:53;7.70;99.90
40374;DHT22;26079;45.958;12.492;2022-11-23T03:50:19;7.60;99.90
40374;DHT22;26079;45.958;12.492;2022-11-23T03:52:44;7.60;99.90
40374;DHT22;26079;45.958;12.492;2022-11-23T03:55:12;7.60;99.90
40374;DHT22;26079;45.958;12.492;2022-11-23T03:57:38;7.60;99.90
40374;DHT22;26079;45.958;12.492;2022-11-23T04:00:04;7.60;99.90
40374;DHT22;26079;45.958;12.492;2022-11-23T04:02:30;7.60;99.90
40374;DHT22;26079;45.958;12.492;2022-11-23T04:04:56;7.60;99.90
40374;DHT22;26079;45.958;12.492;2022-11-23T04:07:21;7.60;99.90
40374;DHT22;26079;45.958;12.492;2022-11-23T04:09:47;7.50;99.90
40374;DHT22;26079;45.958;12.492;2022-11-23T04:12:12;7.50;99.90
40374;DHT22;26079;45.958;12.492;2022-11-23T04:14:38;7.40;99.90
40374;DHT22;26079;45.958;12.492;2022-11-23T04:17:04;7.40;99.90
40374;DHT22;26079;45.958;12.492;2022-11-23T04:19:30;7.40;99.90
40374;DHT22;26079;45.958;12.492;2022-11-23T04:21:56;7.30;99.90
40374;DHT22;26079;45.958;12.492;2022-11-23T04:24:22;7.30;99.90
40374;DHT22;26079;45.958;12.492;2022-11-23T04:26:47;7.30;99.90
40374;DHT22;26079;45.958;12.492;2022-11-23T04:29:13;7.30;99.90
40374;DHT22;26079;45.958;12.492;2022-11-23T04:31:39;7.30;99.90
40374;DHT22;26079;45.958;12.492;2022-11-23T04:34:04;7.30;99.90
40374;DHT22;26079;45.958;12.492;2022-11-23T04:36:30;7.30;99.90
40374;DHT22;26079;45.958;12.492;2022-11-23T04:38:56;7.30;99.90
40374;DHT22;26079;45.958;12.492;2022-11-23T04:41:22;7.40;99.90
40374;DHT22;26079;45.958;12.492;2022-11-23T04:43:48;7.40;99.90
40374;DHT22;26079;45.958;12.492;2022-11-23T04:46:14;7.50;99.90
40374;DHT22;26079;45.958;12.492;2022-11-23T04:48:40;7.50;99.90
40374;DHT22;26079;45.958;12.492;2022-11-23T04:51:06;7.50;99.90
40374;DHT22;26079;45.958;12.492;2022-11-23T04:53:32;7.50;99.90
40374;DHT22;26079;45.958;12.492;2022-11-23T04:55:57;7.50;99.90
40374;DHT22;26079;45.958;12.492;2022-11-23T04:58:23;7.50;99.90
40374;DHT22;26079;45.958;12.492;2022-11-23T05:00:49;7.40;99.90
40374;DHT22;26079;45.958;12.492;2022-11-23T05:03:15;7.40;99.90
40374;DHT22;26079;45.958;12.492;2022-11-23T05:05:41;7.30;99.90
40374;DHT22;26079;45.958;12.492;2022-11-23T05:08:07;7.20;99.90
40374;DHT22;26079;45.958;12.492;2022-11-23T05:10:34;7.20;99.90
40374;DHT22;26079;45.958;12.492;2022-11-23T05:13:00;7.10;99.90
40374;DHT22;26079;45.958;12.492;2022-11-23T05:15:26;7.10;99.90
40374;DHT22;26079;45.958;12.492;2022-11-23T05:17:51;7.10;99.90
40374;DHT22;26079;45.958;12.492;2022-11-23T05:20:17;7.10;99.90
40374;DHT22;26079;45.958;12.492;2022-11-23T05:22:43;7.10;99.90
40374;DHT22;26079;45.958;12.492;2022-11-23T05:25:08;7.10;99.90
40374;DHT22;26079;45.958;12.492;2022-11-23T05:27:35;7.10;99.90
40374;DHT22;26079;45.958;12.492;2022-11-23T05:30:01;7.10;99.90
40374;DHT22;26079;45.958;12.492;2022-11-23T05:32:27;7.00;99.90
40374;DHT22;26079;45.958;12.492;2022-11-23T05:34:52;7.00;99.90
40374;DHT22;26079;45.958;12.492;2022-11-23T05:37:18;7.00;99.90
40374;DHT22;26079;45.958;12.492;2022-11-23T05:39:44;7.00;99.90
40374;DHT22;26079;45.958;12.492;2022-11-23T05:42:09;7.00;99.90
40374;DHT22;26079;45.958;12.492;2022-11-23T05:44:35;6.90;99.90
40374;DHT22;26079;45.958;12.492;2022-11-23T05:47:01;6.90;99.90
40374;DHT22;26079;45.958;12.492;2022-11-23T05:49:26;6.90;99.90
40374;DHT22;26079;45.958;12.492;2022-11-23T05:51:52;6.90;99.90
40374;DHT22;26079;45.958;12.492;2022-11-23T05:54:18;6.90;99.90
40374;DHT22;26079;45.958;12.492;2022-11-23T05:56:43;6.90;99.90
40374;DHT22;26079;45.958;12.492;2022-11-23T05:59:10;6.90;99.90
40374;DHT22;26079;45.958;12.492;2022-11-23T06:01:36;6.90;99.90
40374;DHT22;26079;45.958;12.492;2022-11-23T06:04:02;6.90;99.90
40374;DHT22;26079;45.958;12.492;2022-11-23T06:06:28;6.90;99.90
40374;DHT22;26079;45.958;12.492;2022-11-23T06:08:53;6.90;99.90
40374;DHT22;26079;45.958;12.492;2022-11-23T06:11:19;6.90;99.90
40374;DHT22;26079;45.958;12.492;2022-11-23T06:13:48;6.90;99.90
40374;DHT22;26079;45.958;12.492;2022-11-23T06:16:14;6.90;99.90
40374;DHT22;26079;45.958;12.492;2022-11-23T06:18:39;6.90;99.90
40374;DHT22;26079;45.958;12.492;2022-11-23T06:21:05;6.90;99.90
40374;DHT22;26079;45.958;12.492;2022-11-23T06:23:31;6.90;99.90
40374;DHT22;26079;45.958;12.492;2022-11-23T06:26:00;6.90;99.90
40374;DHT22;26079;45.958;12.492;2022-11-23T06:28:26;6.90;99.90
40374;DHT22;26079;45.958;12.492;2022-11-23T06:30:54;6.80;99.90
40374;DHT22;26079;45.958;12.492;2022-11-23T06:33:19;6.80;99.90
40374;DHT22;26079;45.958;12.492;2022-11-23T06:35:55;6.80;99.90
40374;DHT22;26079;45.958;12.492;2022-11-23T06:38:21;6.90;99.90
40374;DHT22;26079;45.958;12.492;2022-11-23T06:40:47;6.90;99.90
40374;DHT22;26079;45.958;12.492;2022-11-23T06:43:12;6.90;99.90
40374;DHT22;26079;45.958;12.492;2022-11-23T06:45:38;6.90;99.90
40374;DHT22;26079;45.958;12.492;2022-11-23T06:48:04;6.90;99.90
40374;DHT22;26079;45.958;12.492;2022-11-23T06:50:30;6.80;99.90
40374;DHT22;26079;45.958;12.492;2022-11-23T06:52:56;6.80;99.90
40374;DHT22;26079;45.958;12.492;2022-11-23T06:55:23;6.70;99.90
40374;DHT22;26079;45.958;12.492;2022-11-23T06:57:49;6.80;99.90
40374;DHT22;26079;45.958;12.492;2022-11-23T07:00:16;6.70;99.90
40374;DHT22;26079;45.958;12.492;2022-11-23T07:02:42;6.80;99.90
40374;DHT22;26079;45.958;12.492;2022-11-23T07:05:08;6.80;99.90
40374;DHT22;26079;45.958;12.492;2022-11-23T07:07:33;6.70;99.90
40374;DHT22;26079;45.958;12.492;2022-11-23T07:09:59;6.80;99.90
40374;DHT22;26079;45.958;12.492;2022-11-23T07:12:25;6.80;99.90
40374;DHT22;26079;45.958;12.492;2022-11-23T07:14:51;6.80;99.90
40374;DHT22;26079;45.958;12.492;2022-11-23T07:17:16;6.80;99.90
40374;DHT22;26079;45.958;12.492;2022-11-23T07:19:42;6.90;99.90
40374;DHT22;26079;45.958;12.492;2022-11-23T07:22:08;7.00;99.90
40374;DHT22;26079;45.958;12.492;2022-11-23T07:24:33;7.00;99.90
40374;DHT22;26079;45.958;12.492;2022-11-23T07:26:59;7.10;99.90
40374;DHT22;26079;45.958;12.492;2022-11-23T07:29:25;7.20;99.90
40374;DHT22;26079;45.958;12.492;2022-11-23T07:31:51;7.30;99.90
40374;DHT22;26079;45.958;12.492;2022-11-23T07:34:17;7.30;99.90
40374;DHT22;26079;45.958;12.492;2022-11-23T07:36:43;7.30;99.90
40374;DHT22;26079;45.958;12.492;2022-11-23T07:39:08;7.30;99.90
40374;DHT22;26079;45.958;12.492;2022-11-23T07:41:34;7.20;99.90
40374;DHT22;26079;45.958;12.492;2022-11-23T07:43:59;7.30;99.90
40374;DHT22;26079;45.958;12.492;2022-11-23T07:46:25;7.40;99.90
40374;DHT22;26079;45.958;12.492;2022-11-23T07:48:51;7.40;99.90
40374;DHT22;26079;45.958;12.492;2022-11-23T07:51:18;7.40;99.90
40374;DHT22;26079;45.958;12.492;2022-11-23T07:53:45;7.50;99.90
40374;DHT22;26079;45.958;12.492;2022-11-23T07:56:10;7.60;99.90
40374;DHT22;26079;45.958;12.492;2022-11-23T07:58:36;7.60;99.90
40374;DHT22;26079;45.958;12.492;2022-11-23T08:01:02;7.70;99.90
40374;DHT22;26079;45.958;12.492;2022-11-23T08:03:28;7.80;99.90
40374;DHT22;26079;45.958;12.492;2022-11-23T08:05:53;7.80;99.90
40374;DHT22;26079;45.958;12.492;2022-11-23T08:08:19;7.90;99.90
40374;DHT22;26079;45.958;12.492;2022-11-23T08:10:45;7.90;99.90
40374;DHT22;26079;45.958;12.492;2022-11-23T08:13:10;7.90;99.90
40374;DHT22;26079;45.958;12.492;2022-11-23T08:15:36;8.00;99.90
40374;DHT22;26079;45.958;12.492;2022-11-23T08:18:03;8.00;99.90
40374;DHT22;26079;45.958;12.492;2022-11-23T08:20:30;8.10;99.90
40374;DHT22;26079;45.958;12.492;2022-11-23T08:22:56;8.10;99.90
40374;DHT22;26079;45.958;12.492;2022-11-23T08:25:23;8.20;99.90
40374;DHT22;26079;45.958;12.492;2022-11-23T08:28:00;8.30;99.90
40374;DHT22;26079;45.958;12.492;2022-11-23T08:30:28;8.40;99.90
40374;DHT22;26079;45.958;12.492;2022-11-23T08:32:55;8.40;99.90
40374;DHT22;26079;45.958;12.492;2022-11-23T08:35:21;8.50;99.90
40374;DHT22;26079;45.958;12.492;2022-11-23T08:37:46;8.60;99.90
40374;DHT22;26079;45.958;12.492;2022-11-23T08:40:13;8.70;99.90
40374;DHT22;26079;45.958;12.492;2022-11-23T08:42:38;8.80;99.90
40374;DHT22;26079;45.958;12.492;2022-11-23T08:45:05;8.70;99.90
40374;DHT22;26079;45.958;12.492;2022-11-23T08:47:32;8.80;99.90
40374;DHT22;26079;45.958;12.492;2022-11-23T08:49:58;8.90;99.90
40374;DHT22;26079;45.958;12.492;2022-11-23T08:52:24;8.90;99.90
40374;DHT22;26079;45.958;12.492;2022-11-23T08:54:50;9.00;99.90
40374;DHT22;26079;45.958;12.492;2022-11-23T08:57:16;9.10;99.90
40374;DHT22;26079;45.958;12.492;2022-11-23T08:59:41;9.10;99.00
40374;DHT22;26079;45.958;12.492;2022-11-23T09:02:12;9.20;99.90
40374;DHT22;26079;45.958;12.492;2022-11-23T09:04:41;9.20;99.60
40374;DHT22;26079;45.958;12.492;2022-11-23T09:07:07;9.30;99.90
40374;DHT22;26079;45.958;12.492;2022-11-23T09:09:33;9.30;99.90
40374;DHT22;26079;45.958;12.492;2022-11-23T09:11:59;9.40;99.90
40374;DHT22;26079;45.958;12.492;2022-11-23T09:14:24;9.50;99.20
40374;DHT22;26079;45.958;12.492;2022-11-23T09:16:52;9.50;99.90
40374;DHT22;26079;45.958;12.492;2022-11-23T09:19:19;9.60;99.90
40374;DHT22;26079;45.958;12.492;2022-11-23T09:21:44;9.70;99.20
40374;DHT22;26079;45.958;12.492;2022-11-23T09:24:10;9.70;98.30
40374;DHT22;26079;45.958;12.492;2022-11-23T09:26:37;9.80;98.70
40374;DHT22;26079;45.958;12.492;2022-11-23T09:29:06;9.90;98.00
40374;DHT22;26079;45.958;12.492;2022-11-23T09:31:33;9.90;96.80
40374;DHT22;26079;45.958;12.492;2022-11-23T09:33:58;9.90;98.60
40374;DHT22;26079;45.958;12.492;2022-11-23T09:36:24;10.00;97.60
40374;DHT22;26079;45.958;12.492;2022-11-23T09:38:50;10.00;96.50
40374;DHT22;26079;45.958;12.492;2022-11-23T09:44:46;10.10;97.90
40374;DHT22;26079;45.958;12.492;2022-11-23T09:47:13;10.10;97.20
40374;DHT22;26079;45.958;12.492;2022-11-23T09:52:21;10.10;96.80
40374;DHT22;26079;45.958;12.492;2022-11-23T09:54:49;10.20;96.90
40374;DHT22;26079;45.958;12.492;2022-11-23T09:57:21;10.20;96.40
40374;DHT22;26079;45.958;12.492;2022-11-23T10:00:39;10.20;95.60
40374;DHT22;26079;45.958;12.492;2022-11-23T10:02:44;10.20;94.40
40374;DHT22;26079;45.958;12.492;2022-11-23T10:05:19;10.20;94.40
40374;DHT22;26079;45.958;12.492;2022-11-23T10:16:36;10.20;94.20
40374;DHT22;26079;45.958;12.492;2022-11-23T10:19:37;10.10;93.50
40374;DHT22;26079;45.958;12.492;2022-11-23T10:23:16;10.20;94.10
40374;DHT22;26079;45.958;12.492;2022-11-23T10:25:24;10.20;93.80
40374;DHT22;26079;45.958;12.492;2022-11-23T10:27:55;10.20;94.80
40374;DHT22;26079;45.958;12.492;2022-11-23T10:30:21;10.20;95.30
40374;DHT22;26079;45.958;12.492;2022-11-23T10:35:27;10.40;95.80
40374;DHT22;26079;45.958;12.492;2022-11-23T10:38:13;10.20;91.90
40374;DHT22;26079;45.958;12.492;2022-11-23T10:41:10;10.20;93.40
40374;DHT22;26079;45.958;12.492;2022-11-23T10:48:53;10.20;93.50
40374;DHT22;26079;45.958;12.492;2022-11-23T10:51:31;10.20;93.80
40374;DHT22;26079;45.958;12.492;2022-11-23T10:54:00;10.20;94.00
40374;DHT22;26079;45.958;12.492;2022-11-23T10:56:27;10.30;94.70
40374;DHT22;26079;45.958;12.492;2022-11-23T10:58:53;10.30;94.30
40374;DHT22;26079;45.958;12.492;2022-11-23T11:01:27;10.40;95.20
40374;DHT22;26079;45.958;12.492;2022-11-23T11:03:57;10.50;94.50
40374;DHT22;26079;45.958;12.492;2022-11-23T11:06:28;10.70;93.30
40374;DHT22;26079;45.958;12.492;2022-11-23T11:09:04;10.70;93.10
40374;DHT22;26079;45.958;12.492;2022-11-23T11:11:46;10.70;92.70
40374;DHT22;26079;45.958;12.492;2022-11-23T11:14:20;10.60;93.80
40374;DHT22;26079;45.958;12.492;2022-11-23T11:16:57;10.70;93.80
40374;DHT22;26079;45.958;12.492;2022-11-23T11:21:51;11.00;94.60
40374;DHT22;26079;45.958;12.492;2022-11-23T11:26:57;11.10;91.70
40374;DHT22;26079;45.958;12.492;2022-11-23T11:29:53;11.20;92.90
40374;DHT22;26079;45.958;12.492;2022-11-23T11:32:21;11.10;91.60
40374;DHT22;26079;45.958;12.492;2022-11-23T11:34:54;11.00;92.30
40374;DHT22;26079;45.958;12.492;2022-11-23T11:37:29;11.00;92.60
40374;DHT22;26079;45.958;12.492;2022-11-23T11:42:39;11.20;92.40
40374;DHT22;26079;45.958;12.492;2022-11-23T11:45:15;11.20;92.70
40374;DHT22;26079;45.958;12.492;2022-11-23T11:47:46;11.20;92.90
40374;DHT22;26079;45.958;12.492;2022-11-23T11:50:24;11.20;91.80
40374;DHT22;26079;45.958;12.492;2022-11-23T11:53:04;11.30;91.50
40374;DHT22;26079;45.958;12.492;2022-11-23T11:58:25;11.30;91.50
40374;DHT22;26079;45.958;12.492;2022-11-23T12:01:27;11.40;92.10
40374;DHT22;26079;45.958;12.492;2022-11-23T12:04:01;11.50;90.50
40374;DHT22;26079;45.958;12.492;2022-11-23T12:06:36;11.60;91.30
40374;DHT22;26079;45.958;12.492;2022-11-23T12:09:15;11.60;90.40
40374;DHT22;26079;45.958;12.492;2022-11-23T12:11:42;11.60;90.40
40374;DHT22;26079;45.958;12.492;2022-11-23T12:14:11;11.70;90.00
40374;DHT22;26079;45.958;12.492;2022-11-23T12:17:05;11.60;89.10
40374;DHT22;26079;45.958;12.492;2022-11-23T12:20:02;11.60;88.40
40374;DHT22;26079;45.958;12.492;2022-11-23T12:28:19;11.50;88.10
40374;DHT22;26079;45.958;12.492;2022-11-23T12:42:11;11.60;87.70
40374;DHT22;26079;45.958;12.492;2022-11-23T12:50:29;11.70;89.40
40374;DHT22;26079;45.958;12.492;2022-11-23T12:55:37;11.70;86.60
40374;DHT22;26079;45.958;12.492;2022-11-23T12:58:15;11.70;86.60
40374;DHT22;26079;45.958;12.492;2022-11-23T13:00:48;11.70;85.60
40374;DHT22;26079;45.958;12.492;2022-11-23T13:09:31;11.70;84.60
40374;DHT22;26079;45.958;12.492;2022-11-23T13:22:29;11.70;86.80
40374;DHT22;26079;45.958;12.492;2022-11-23T13:25:00;11.70;86.80
40374;DHT22;26079;45.958;12.492;2022-11-23T13:40:23;11.80;84.80
40374;DHT22;26079;45.958;12.492;2022-11-23T13:42:50;11.80;84.20
40374;DHT22;26079;45.958;12.492;2022-11-23T13:53:01;11.70;85.40
40374;DHT22;26079;45.958;12.492;2022-11-23T13:55:33;11.70;85.80
40374;DHT22;26079;45.958;12.492;2022-11-23T13:58:36;11.70;84.80
40374;DHT22;26079;45.958;12.492;2022-11-23T14:01:02;11.70;86.00
40374;DHT22;26079;45.958;12.492;2022-11-23T14:03:45;11.70;85.80
40374;DHT22;26079;45.958;12.492;2022-11-23T14:06:35;11.60;84.30
40374;DHT22;26079;45.958;12.492;2022-11-23T14:09:09;11.60;84.70
40374;DHT22;26079;45.958;12.492;2022-11-23T14:14:21;11.70;86.40
40374;DHT22;26079;45.958;12.492;2022-11-23T14:20:03;11.60;83.90
40374;DHT22;26079;45.958;12.492;2022-11-23T14:22:40;11.60;83.90
40374;DHT22;26079;45.958;12.492;2022-11-23T14:33:26;11.50;84.10
40374;DHT22;26079;45.958;12.492;2022-11-23T14:36:05;11.50;83.50
40374;DHT22;26079;45.958;12.492;2022-11-23T14:41:23;11.50;84.60
40374;DHT22;26079;45.958;12.492;2022-11-23T14:43:51;11.40;84.80
40374;DHT22;26079;45.958;12.492;2022-11-23T14:46:19;11.40;85.70
40374;DHT22;26079;45.958;12.492;2022-11-23T14:48:49;11.30;85.60
40374;DHT22;26079;45.958;12.492;2022-11-23T14:51:18;11.30;86.40
40374;DHT22;26079;45.958;12.492;2022-11-23T14:53:50;11.30;86.80
40374;DHT22;26079;45.958;12.492;2022-11-23T14:59:00;11.10;87.80
40374;DHT22;26079;45.958;12.492;2022-11-23T15:01:26;11.00;89.00
40374;DHT22;26079;45.958;12.492;2022-11-23T15:04:06;10.90;88.50
40374;DHT22;26079;45.958;12.492;2022-11-23T15:06:34;10.80;91.90
40374;DHT22;26079;45.958;12.492;2022-11-23T15:09:18;10.60;92.40
40374;DHT22;26079;45.958;12.492;2022-11-23T15:11:47;10.50;92.80
40374;DHT22;26079;45.958;12.492;2022-11-23T15:14:24;10.40;94.10
40374;DHT22;26079;45.958;12.492;2022-11-23T15:16:50;10.40;91.10
40374;DHT22;26079;45.958;12.492;2022-11-23T15:19:26;10.40;91.90
40374;DHT22;26079;45.958;12.492;2022-11-23T15:21:53;10.40;94.80
40374;DHT22;26079;45.958;12.492;2022-11-23T15:24:24;10.30;96.40
40374;DHT22;26079;45.958;12.492;2022-11-23T15:26:51;10.10;98.10
40374;DHT22;26079;45.958;12.492;2022-11-23T15:29:27;10.00;99.90
40374;DHT22;26079;45.958;12.492;2022-11-23T15:31:53;9.80;99.90
40374;DHT22;26079;45.958;12.492;2022-11-23T15:34:20;9.60;99.90
40374;DHT22;26079;45.958;12.492;2022-11-23T15:36:46;9.50;99.90
40374;DHT22;26079;45.958;12.492;2022-11-23T15:39:20;9.30;99.90
40374;DHT22;26079;45.958;12.492;2022-11-23T15:41:47;9.20;99.90
40374;DHT22;26079;45.958;12.492;2022-11-23T15:44:20;9.10;99.90
40374;DHT22;26079;45.958;12.492;2022-11-23T15:46:48;9.00;99.90
40374;DHT22;26079;45.958;12.492;2022-11-23T15:49:15;8.90;99.90
40374;DHT22;26079;45.958;12.492;2022-11-23T15:51:44;8.80;99.90
40374;DHT22;26079;45.958;12.492;2022-11-23T15:54:25;8.70;99.90
40374;DHT22;26079;45.958;12.492;2022-11-23T15:56:54;8.60;99.90
40374;DHT22;26079;45.958;12.492;2022-11-23T16:02:18;8.50;99.90
40374;DHT22;26079;45.958;12.492;2022-11-23T16:04:45;8.40;99.90
40374;DHT22;26079;45.958;12.492;2022-11-23T16:07:18;8.40;99.90
40374;DHT22;26079;45.958;12.492;2022-11-23T16:09:45;8.30;99.90
40374;DHT22;26079;45.958;12.492;2022-11-23T16:12:30;8.20;99.90
40374;DHT22;26079;45.958;12.492;2022-11-23T16:20:50;8.10;99.90
40374;DHT22;26079;45.958;12.492;2022-11-23T16:23:19;8.00;99.90
40374;DHT22;26079;45.958;12.492;2022-11-23T16:25:58;8.00;99.90
40374;DHT22;26079;45.958;12.492;2022-11-23T16:28:32;8.00;99.90
40374;DHT22;26079;45.958;12.492;2022-11-23T16:30:59;7.90;99.90
40374;DHT22;26079;45.958;12.492;2022-11-23T16:33:25;7.80;99.90
40374;DHT22;26079;45.958;12.492;2022-11-23T16:35:51;7.80;99.90
40374;DHT22;26079;45.958;12.492;2022-11-23T16:38:17;7.70;99.90
40374;DHT22;26079;45.958;12.492;2022-11-23T16:40:44;7.70;99.90
40374;DHT22;26079;45.958;12.492;2022-11-23T16:43:11;7.60;99.90
40374;DHT22;26079;45.958;12.492;2022-11-23T16:45:43;7.60;99.90
40374;DHT22;26079;45.958;12.492;2022-11-23T16:50:50;7.40;99.90
40374;DHT22;26079;45.958;12.492;2022-11-23T16:53:17;7.40;99.90
40374;DHT22;26079;45.958;12.492;2022-11-23T16:55:45;7.40;99.90
40374;DHT22;26079;45.958;12.492;2022-11-23T16:58:13;7.40;99.90
40374;DHT22;26079;45.958;12.492;2022-11-23T17:00:41;7.40;99.90
40374;DHT22;26079;45.958;12.492;2022-11-23T17:03:19;7.40;99.90
40374;DHT22;26079;45.958;12.492;2022-11-23T17:05:45;7.40;99.90
40374;DHT22;26079;45.958;12.492;2022-11-23T17:08:11;7.40;99.90
40374;DHT22;26079;45.958;12.492;2022-11-23T17:10:38;7.30;99.90
40374;DHT22;26079;45.958;12.492;2022-11-23T17:13:09;7.30;99.90
40374;DHT22;26079;45.958;12.492;2022-11-23T17:15:36;7.30;99.90
40374;DHT22;26079;45.958;12.492;2022-11-23T17:18:03;7.40;99.90
40374;DHT22;26079;45.958;12.492;2022-11-23T17:20:29;7.40;99.90
40374;DHT22;26079;45.958;12.492;2022-11-23T17:22:54;7.40;99.90
40374;DHT22;26079;45.958;12.492;2022-11-23T17:25:25;7.40;99.90
40374;DHT22;26079;45.958;12.492;2022-11-23T17:27:50;7.30;99.90
40374;DHT22;26079;45.958;12.492;2022-11-23T17:30:19;7.20;99.90
40374;DHT22;26079;45.958;12.492;2022-11-23T17:32:46;7.20;99.90
40374;DHT22;26079;45.958;12.492;2022-11-23T17:35:12;7.10;99.90
40374;DHT22;26079;45.958;12.492;2022-11-23T17:37:38;7.10;99.90
40374;DHT22;26079;45.958;12.492;2022-11-23T17:40:04;7.10;99.90
40374;DHT22;26079;45.958;12.492;2022-11-23T17:42:30;7.00;99.90
40374;DHT22;26079;45.958;12.492;2022-11-23T17:44:55;7.00;99.90
40374;DHT22;26079;45.958;12.492;2022-11-23T17:47:28;6.90;99.90
40374;DHT22;26079;45.958;12.492;2022-11-23T17:49:55;6.90;99.90
40374;DHT22;26079;45.958;12.492;2022-11-23T17:52:21;6.80;99.90
40374;DHT22;26079;45.958;12.492;2022-11-23T17:54:47;6.80;99.90
40374;DHT22;26079;45.958;12.492;2022-11-23T17:57:14;6.70;99.90
40374;DHT22;26079;45.958;12.492;2022-11-23T17:59:40;6.70;99.90